sensor_id;sensor_type;location;lat;lon;timestamp;P1;durP1;ratioP1;P2;durP2;ratioP2
23082;SDS011;11709;52.420;10.538;2022-11-15T00:02:39;26.82;;;14.85;;
23082;SDS011;11709;52.420;10.538;2022-11-15T00:06:43;29.98;;;15.28;;
23082;SDS011;11709;52.420;10.538;2022-11-15T00:11:02;28.77;;;14.35;;
23082;SDS011;11709;52.420;10.538;2022-11-15T00:15:02;26.12;;;14.20;;
23082;SDS011;11709;52.420;10.538;2022-11-15T00:19:06;29.07;;;15.43;;
23082;SDS011;11709;52.420;10.538;2022-11-15T00:23:09;27.10;;;15.00;;
23082;SDS011;11709;52.420;10.538;2022-11-15T00:27:13;26.97;;;14.75;;
23082;SDS011;11709;52.420;10.538;2022-11-15T00:31:16;27.58;;;15.15;;
23082;SDS011;11709;52.420;10.538;2022-11-15T00:35:19;31.73;;;16.12;;
23082;SDS011;11709;52.420;10.538;2022-11-15T00:39:22;27.93;;;14.68;;
23082;SDS011;11709;52.420;10.538;2022-11-15T00:43:24;29.70;;;14.70;;
23082;SDS011;11709;52.420;10.538;2022-11-15T00:47:28;31.90;;;14.80;;
23082;SDS011;11709;52.420;10.538;2022-11-15T00:51:32;27.00;;;14.70;;
23082;SDS011;11709;52.420;10.538;2022-11-15T00:55:34;26.73;;;14.60;;
23082;SDS011;11709;52.420;10.538;2022-11-15T00:59:37;29.90;;;15.08;;
23082;SDS011;11709;52.420;10.538;2022-11-15T01:03:40;28.05;;;14.38;;
23082;SDS011;11709;52.420;10.538;2022-11-15T01:07:43;26.48;;;14.87;;
23082;SDS011;11709;52.420;10.538;2022-11-15T01:11:45;25.85;;;14.23;;
23082;SDS011;11709;52.420;10.538;2022-11-15T01:15:48;28.65;;;14.93;;
23082;SDS011;11709;52.420;10.538;2022-11-15T01:19:53;26.00;;;13.80;;
23082;SDS011;11709;52.420;10.538;2022-11-15T01:23:56;27.73;;;14.95;;
23082;SDS011;11709;52.420;10.538;2022-11-15T01:27:59;25.50;;;13.90;;
23082;SDS011;11709;52.420;10.538;2022-11-15T01:32:02;27.62;;;14.78;;
23082;SDS011;11709;52.420;10.538;2022-11-15T01:36:05;27.82;;;14.47;;
23082;SDS011;11709;52.420;10.538;2022-11-15T01:40:09;28.50;;;14.78;;
23082;SDS011;11709;52.420;10.538;2022-11-15T01:48:37;26.73;;;14.95;;
23082;SDS011;11709;52.420;10.538;2022-11-15T01:52:39;26.15;;;13.55;;
23082;SDS011;11709;52.420;10.538;2022-11-15T01:56:44;29.87;;;14.28;;
23082;SDS011;11709;52.420;10.538;2022-11-15T02:00:51;27.98;;;14.25;;
23082;SDS011;11709;52.420;10.538;2022-11-15T02:04:54;29.12;;;14.10;;
23082;SDS011;11709;52.420;10.538;2022-11-15T02:08:56;29.35;;;14.83;;
23082;SDS011;11709;52.420;10.538;2022-11-15T02:13:00;25.52;;;13.58;;
23082;SDS011;11709;52.420;10.538;2022-11-15T02:21:35;27.85;;;14.68;;
23082;SDS011;11709;52.420;10.538;2022-11-15T02:25:52;24.70;;;14.65;;
23082;SDS011;11709;52.420;10.538;2022-11-15T02:39:03;29.42;;;14.93;;
23082;SDS011;11709;52.420;10.538;2022-11-15T02:43:08;26.52;;;14.50;;
23082;SDS011;11709;52.420;10.538;2022-11-15T02:47:31;29.92;;;15.15;;
23082;SDS011;11709;52.420;10.538;2022-11-15T02:51:36;22.90;;;9.90;;
23082;SDS011;11709;52.420;10.538;2022-11-15T02:55:50;25.40;;;14.73;;
23082;SDS011;11709;52.420;10.538;2022-11-15T03:00:00;26.75;;;14.38;;
23082;SDS011;11709;52.420;10.538;2022-11-15T03:08:42;28.23;;;14.75;;
23082;SDS011;11709;52.420;10.538;2022-11-15T03:13:21;27.27;;;15.08;;
23082;SDS011;11709;52.420;10.538;2022-11-15T03:17:28;27.93;;;14.53;;
23082;SDS011;11709;52.420;10.538;2022-11-15T03:21:32;33.40;;;15.32;;
23082;SDS011;11709;52.420;10.538;2022-11-15T03:25:40;30.52;;;14.95;;
23082;SDS011;11709;52.420;10.538;2022-11-15T03:29:45;31.70;;;15.23;;
23082;SDS011;11709;52.420;10.538;2022-11-15T03:33:50;29.15;;;14.83;;
23082;SDS011;11709;52.420;10.538;2022-11-15T03:42:30;28.73;;;13.98;;
23082;SDS011;11709;52.420;10.538;2022-11-15T03:46:32;26.33;;;13.70;;
23082;SDS011;11709;52.420;10.538;2022-11-15T03:50:36;29.00;;;13.83;;
23082;SDS011;11709;52.420;10.538;2022-11-15T03:54:55;27.32;;;13.98;;
23082;SDS011;11709;52.420;10.538;2022-11-15T03:58:58;30.97;;;14.53;;
23082;SDS011;11709;52.420;10.538;2022-11-15T04:03:00;27.90;;;14.15;;
23082;SDS011;11709;52.420;10.538;2022-11-15T04:07:03;24.35;;;13.98;;
23082;SDS011;11709;52.420;10.538;2022-11-15T04:11:05;24.12;;;14.20;;
23082;SDS011;11709;52.420;10.538;2022-11-15T04:15:10;25.50;;;14.15;;
23082;SDS011;11709;52.420;10.538;2022-11-15T04:19:13;24.45;;;13.65;;
23082;SDS011;11709;52.420;10.538;2022-11-15T04:23:34;25.50;;;14.13;;
23082;SDS011;11709;52.420;10.538;2022-11-15T04:27:50;26.65;;;14.55;;
23082;SDS011;11709;52.420;10.538;2022-11-15T04:31:53;26.75;;;14.63;;
23082;SDS011;11709;52.420;10.538;2022-11-15T04:35:55;27.07;;;13.78;;
23082;SDS011;11709;52.420;10.538;2022-11-15T04:40:16;24.87;;;12.95;;
23082;SDS011;11709;52.420;10.538;2022-11-15T04:44:18;27.73;;;13.48;;
23082;SDS011;11709;52.420;10.538;2022-11-15T04:48:21;30.27;;;14.50;;
23082;SDS011;11709;52.420;10.538;2022-11-15T04:52:23;26.62;;;14.75;;
23082;SDS011;11709;52.420;10.538;2022-11-15T04:56:26;24.90;;;13.13;;
23082;SDS011;11709;52.420;10.538;2022-11-15T05:00:29;26.15;;;13.72;;
23082;SDS011;11709;52.420;10.538;2022-11-15T05:04:31;24.92;;;12.82;;
23082;SDS011;11709;52.420;10.538;2022-11-15T05:08:34;26.27;;;13.18;;
23082;SDS011;11709;52.420;10.538;2022-11-15T05:12:36;23.57;;;11.50;;
23082;SDS011;11709;52.420;10.538;2022-11-15T05:16:39;22.45;;;12.43;;
23082;SDS011;11709;52.420;10.538;2022-11-15T05:20:42;24.87;;;11.95;;
23082;SDS011;11709;52.420;10.538;2022-11-15T05:24:44;23.18;;;13.43;;
23082;SDS011;11709;52.420;10.538;2022-11-15T05:28:51;23.07;;;12.15;;
23082;SDS011;11709;52.420;10.538;2022-11-15T05:32:54;24.77;;;13.70;;
23082;SDS011;11709;52.420;10.538;2022-11-15T05:36:57;26.33;;;13.58;;
23082;SDS011;11709;52.420;10.538;2022-11-15T05:41:00;29.72;;;13.25;;
23082;SDS011;11709;52.420;10.538;2022-11-15T05:45:05;22.62;;;12.65;;
23082;SDS011;11709;52.420;10.538;2022-11-15T05:49:10;25.82;;;13.00;;
23082;SDS011;11709;52.420;10.538;2022-11-15T05:53:16;24.02;;;12.50;;
23082;SDS011;11709;52.420;10.538;2022-11-15T05:57:21;22.95;;;12.28;;
23082;SDS011;11709;52.420;10.538;2022-11-15T06:01:24;24.43;;;11.90;;
23082;SDS011;11709;52.420;10.538;2022-11-15T06:05:28;21.60;;;11.68;;
23082;SDS011;11709;52.420;10.538;2022-11-15T06:09:30;23.32;;;12.55;;
23082;SDS011;11709;52.420;10.538;2022-11-15T06:13:33;17.65;;;10.70;;
23082;SDS011;11709;52.420;10.538;2022-11-15T06:17:36;18.20;;;10.85;;
23082;SDS011;11709;52.420;10.538;2022-11-15T06:21:38;21.77;;;11.65;;
23082;SDS011;11709;52.420;10.538;2022-11-15T06:25:41;26.05;;;13.28;;
23082;SDS011;11709;52.420;10.538;2022-11-15T06:29:43;22.35;;;12.07;;
23082;SDS011;11709;52.420;10.538;2022-11-15T06:33:46;22.98;;;12.58;;
23082;SDS011;11709;52.420;10.538;2022-11-15T06:37:50;23.55;;;12.13;;
23082;SDS011;11709;52.420;10.538;2022-11-15T06:41:52;22.98;;;12.00;;
23082;SDS011;11709;52.420;10.538;2022-11-15T06:45:55;22.15;;;12.88;;
23082;SDS011;11709;52.420;10.538;2022-11-15T06:49:59;22.60;;;11.97;;
23082;SDS011;11709;52.420;10.538;2022-11-15T06:54:02;21.02;;;12.28;;
23082;SDS011;11709;52.420;10.538;2022-11-15T06:58:04;23.35;;;12.30;;
23082;SDS011;11709;52.420;10.538;2022-11-15T07:02:11;25.55;;;12.00;;
23082;SDS011;11709;52.420;10.538;2022-11-15T07:06:14;22.85;;;11.95;;
23082;SDS011;11709;52.420;10.538;2022-11-15T07:10:17;22.58;;;11.97;;
23082;SDS011;11709;52.420;10.538;2022-11-15T07:14:19;24.87;;;12.03;;
23082;SDS011;11709;52.420;10.538;2022-11-15T07:18:22;22.48;;;11.78;;
23082;SDS011;11709;52.420;10.538;2022-11-15T07:22:24;21.97;;;10.98;;
23082;SDS011;11709;52.420;10.538;2022-11-15T07:26:27;21.40;;;10.70;;
23082;SDS011;11709;52.420;10.538;2022-11-15T07:30:29;20.35;;;10.93;;
23082;SDS011;11709;52.420;10.538;2022-11-15T07:34:32;22.25;;;10.98;;
23082;SDS011;11709;52.420;10.538;2022-11-15T07:38:34;18.12;;;10.03;;
23082;SDS011;11709;52.420;10.538;2022-11-15T07:42:37;18.32;;;10.10;;
23082;SDS011;11709;52.420;10.538;2022-11-15T07:46:56;13.72;;;8.38;;
23082;SDS011;11709;52.420;10.538;2022-11-15T07:51:04;16.17;;;8.43;;
23082;SDS011;11709;52.420;10.538;2022-11-15T07:55:04;14.47;;;7.47;;
23082;SDS011;11709;52.420;10.538;2022-11-15T07:59:11;18.10;;;9.43;;
23082;SDS011;11709;52.420;10.538;2022-11-15T08:03:14;13.18;;;8.20;;
23082;SDS011;11709;52.420;10.538;2022-11-15T08:07:17;14.20;;;8.68;;
23082;SDS011;11709;52.420;10.538;2022-11-15T08:11:20;26.52;;;13.90;;
23082;SDS011;11709;52.420;10.538;2022-11-15T08:15:22;19.50;;;13.48;;
23082;SDS011;11709;52.420;10.538;2022-11-15T08:19:25;12.63;;;6.67;;
23082;SDS011;11709;52.420;10.538;2022-11-15T08:23:27;9.98;;;6.53;;
23082;SDS011;11709;52.420;10.538;2022-11-15T08:27:30;10.68;;;6.50;;
23082;SDS011;11709;52.420;10.538;2022-11-15T08:31:32;9.55;;;5.53;;
23082;SDS011;11709;52.420;10.538;2022-11-15T08:35:37;10.90;;;6.30;;
23082;SDS011;11709;52.420;10.538;2022-11-15T08:39:39;12.20;;;6.03;;
23082;SDS011;11709;52.420;10.538;2022-11-15T08:43:42;12.00;;;6.05;;
23082;SDS011;11709;52.420;10.538;2022-11-15T08:47:44;7.05;;;4.90;;
23082;SDS011;11709;52.420;10.538;2022-11-15T08:51:47;9.58;;;5.80;;
23082;SDS011;11709;52.420;10.538;2022-11-15T08:55:49;8.08;;;5.37;;
23082;SDS011;11709;52.420;10.538;2022-11-15T08:59:52;7.67;;;5.30;;
23082;SDS011;11709;52.420;10.538;2022-11-15T09:03:55;9.15;;;5.92;;
23082;SDS011;11709;52.420;10.538;2022-11-15T09:07:57;10.08;;;6.00;;
23082;SDS011;11709;52.420;10.538;2022-11-15T09:12:00;14.30;;;7.62;;
23082;SDS011;11709;52.420;10.538;2022-11-15T09:16:02;11.15;;;6.85;;
23082;SDS011;11709;52.420;10.538;2022-11-15T09:20:06;11.30;;;6.72;;
23082;SDS011;11709;52.420;10.538;2022-11-15T09:24:09;12.03;;;6.55;;
23082;SDS011;11709;52.420;10.538;2022-11-15T09:28:11;8.28;;;6.35;;
23082;SDS011;11709;52.420;10.538;2022-11-15T09:32:14;11.60;;;6.90;;
23082;SDS011;11709;52.420;10.538;2022-11-15T09:36:16;13.93;;;8.00;;
23082;SDS011;11709;52.420;10.538;2022-11-15T09:40:19;13.60;;;6.92;;
23082;SDS011;11709;52.420;10.538;2022-11-15T09:49:06;8.45;;;5.80;;
23082;SDS011;11709;52.420;10.538;2022-11-15T09:52:56;11.22;;;5.75;;
23082;SDS011;11709;52.420;10.538;2022-11-15T10:05:34;9.63;;;6.80;;
23082;SDS011;11709;52.420;10.538;2022-11-15T10:09:46;11.85;;;6.65;;
23082;SDS011;11709;52.420;10.538;2022-11-15T10:14:05;10.68;;;6.45;;
23082;SDS011;11709;52.420;10.538;2022-11-15T10:26:48;9.58;;;6.62;;
23082;SDS011;11709;52.420;10.538;2022-11-15T10:30:53;8.55;;;5.90;;
23082;SDS011;11709;52.420;10.538;2022-11-15T10:34:57;11.55;;;6.30;;
23082;SDS011;11709;52.420;10.538;2022-11-15T10:38:59;8.85;;;6.12;;
23082;SDS011;11709;52.420;10.538;2022-11-15T10:47:21;10.35;;;6.03;;
23082;SDS011;11709;52.420;10.538;2022-11-15T10:51:26;8.08;;;6.05;;
23082;SDS011;11709;52.420;10.538;2022-11-15T10:55:31;8.68;;;5.50;;
23082;SDS011;11709;52.420;10.538;2022-11-15T10:59:35;8.78;;;5.95;;
23082;SDS011;11709;52.420;10.538;2022-11-15T11:03:39;12.73;;;6.05;;
23082;SDS011;11709;52.420;10.538;2022-11-15T11:07:43;9.68;;;5.83;;
23082;SDS011;11709;52.420;10.538;2022-11-15T11:11:53;12.45;;;5.90;;
23082;SDS011;11709;52.420;10.538;2022-11-15T11:15:55;9.68;;;5.90;;
23082;SDS011;11709;52.420;10.538;2022-11-15T11:20:16;8.53;;;5.42;;
23082;SDS011;11709;52.420;10.538;2022-11-15T11:24:26;7.12;;;5.37;;
23082;SDS011;11709;52.420;10.538;2022-11-15T11:37:24;7.45;;;5.45;;
23082;SDS011;11709;52.420;10.538;2022-11-15T11:41:34;8.48;;;5.58;;
23082;SDS011;11709;52.420;10.538;2022-11-15T11:46:04;8.15;;;5.10;;
23082;SDS011;11709;52.420;10.538;2022-11-15T11:54:45;8.85;;;5.12;;
23082;SDS011;11709;52.420;10.538;2022-11-15T11:58:35;8.88;;;5.35;;
23082;SDS011;11709;52.420;10.538;2022-11-15T12:11:06;9.48;;;5.42;;
23082;SDS011;11709;52.420;10.538;2022-11-15T12:19:19;8.85;;;5.33;;
23082;SDS011;11709;52.420;10.538;2022-11-15T12:23:26;8.58;;;5.17;;
23082;SDS011;11709;52.420;10.538;2022-11-15T12:27:50;9.73;;;5.75;;
23082;SDS011;11709;52.420;10.538;2022-11-15T12:31:57;8.93;;;6.00;;
23082;SDS011;11709;52.420;10.538;2022-11-15T12:36:05;7.42;;;5.35;;
23082;SDS011;11709;52.420;10.538;2022-11-15T12:40:22;7.85;;;5.15;;
23082;SDS011;11709;52.420;10.538;2022-11-15T12:57:33;6.62;;;4.97;;
23082;SDS011;11709;52.420;10.538;2022-11-15T13:09:51;11.85;;;5.55;;
23082;SDS011;11709;52.420;10.538;2022-11-15T13:13:54;8.15;;;4.90;;
23082;SDS011;11709;52.420;10.538;2022-11-15T13:17:57;10.00;;;5.22;;
23082;SDS011;11709;52.420;10.538;2022-11-15T13:22:00;9.35;;;5.78;;
23082;SDS011;11709;52.420;10.538;2022-11-15T13:26:24;10.25;;;6.05;;
23082;SDS011;11709;52.420;10.538;2022-11-15T13:30:28;9.75;;;5.58;;
23082;SDS011;11709;52.420;10.538;2022-11-15T13:34:32;10.63;;;5.90;;
23082;SDS011;11709;52.420;10.538;2022-11-15T13:38:37;7.62;;;4.80;;
23082;SDS011;11709;52.420;10.538;2022-11-15T13:42:41;9.10;;;4.87;;
23082;SDS011;11709;52.420;10.538;2022-11-15T13:46:44;8.60;;;5.67;;
23082;SDS011;11709;52.420;10.538;2022-11-15T13:50:47;10.10;;;5.92;;
23082;SDS011;11709;52.420;10.538;2022-11-15T13:54:55;8.80;;;5.37;;
23082;SDS011;11709;52.420;10.538;2022-11-15T13:58:57;11.10;;;5.80;;
23082;SDS011;11709;52.420;10.538;2022-11-15T14:03:35;9.80;;;4.97;;
23082;SDS011;11709;52.420;10.538;2022-11-15T14:07:25;9.43;;;5.42;;
23082;SDS011;11709;52.420;10.538;2022-11-15T14:11:29;7.95;;;5.00;;
23082;SDS011;11709;52.420;10.538;2022-11-15T14:15:33;8.88;;;4.92;;
23082;SDS011;11709;52.420;10.538;2022-11-15T14:19:38;7.03;;;5.08;;
23082;SDS011;11709;52.420;10.538;2022-11-15T14:23:41;7.37;;;5.25;;
23082;SDS011;11709;52.420;10.538;2022-11-15T14:28:31;9.20;;;5.70;;
23082;SDS011;11709;52.420;10.538;2022-11-15T14:32:13;9.30;;;5.15;;
23082;SDS011;11709;52.420;10.538;2022-11-15T14:36:19;9.30;;;5.37;;
23082;SDS011;11709;52.420;10.538;2022-11-15T14:40:22;8.70;;;5.33;;
23082;SDS011;11709;52.420;10.538;2022-11-15T14:44:25;8.75;;;5.08;;
23082;SDS011;11709;52.420;10.538;2022-11-15T14:48:27;8.73;;;5.28;;
23082;SDS011;11709;52.420;10.538;2022-11-15T14:52:30;7.12;;;4.90;;
23082;SDS011;11709;52.420;10.538;2022-11-15T15:00:39;9.15;;;5.60;;
23082;SDS011;11709;52.420;10.538;2022-11-15T15:04:42;10.38;;;5.87;;
23082;SDS011;11709;52.420;10.538;2022-11-15T15:08:45;9.63;;;6.08;;
23082;SDS011;11709;52.420;10.538;2022-11-15T15:12:49;12.90;;;6.92;;
23082;SDS011;11709;52.420;10.538;2022-11-15T15:16:52;12.33;;;6.47;;
23082;SDS011;11709;52.420;10.538;2022-11-15T15:20:59;10.80;;;6.37;;
23082;SDS011;11709;52.420;10.538;2022-11-15T15:25:01;11.53;;;7.28;;
23082;SDS011;11709;52.420;10.538;2022-11-15T15:29:04;15.10;;;7.35;;
23082;SDS011;11709;52.420;10.538;2022-11-15T15:33:09;15.53;;;7.85;;
23082;SDS011;11709;52.420;10.538;2022-11-15T15:41:26;15.93;;;8.45;;
23082;SDS011;11709;52.420;10.538;2022-11-15T15:45:28;13.05;;;8.00;;
23082;SDS011;11709;52.420;10.538;2022-11-15T15:49:31;15.05;;;8.73;;
23082;SDS011;11709;52.420;10.538;2022-11-15T15:53:34;15.75;;;9.15;;
23082;SDS011;11709;52.420;10.538;2022-11-15T15:57:36;17.90;;;9.28;;
23082;SDS011;11709;52.420;10.538;2022-11-15T16:01:39;19.48;;;9.80;;
23082;SDS011;11709;52.420;10.538;2022-11-15T16:05:41;19.00;;;9.70;;
23082;SDS011;11709;52.420;10.538;2022-11-15T16:09:44;17.35;;;10.32;;
23082;SDS011;11709;52.420;10.538;2022-11-15T16:14:01;17.48;;;9.63;;
23082;SDS011;11709;52.420;10.538;2022-11-15T16:18:04;17.67;;;9.63;;
23082;SDS011;11709;52.420;10.538;2022-11-15T16:22:09;25.23;;;10.13;;
23082;SDS011;11709;52.420;10.538;2022-11-15T16:26:20;14.78;;;10.00;;
23082;SDS011;11709;52.420;10.538;2022-11-15T16:30:26;22.00;;;11.33;;
23082;SDS011;11709;52.420;10.538;2022-11-15T16:34:28;23.87;;;11.33;;
23082;SDS011;11709;52.420;10.538;2022-11-15T16:38:31;19.45;;;10.75;;
23082;SDS011;11709;52.420;10.538;2022-11-15T16:42:33;17.15;;;10.63;;
23082;SDS011;11709;52.420;10.538;2022-11-15T16:46:36;22.48;;;11.60;;
23082;SDS011;11709;52.420;10.538;2022-11-15T16:50:40;18.52;;;10.23;;
23082;SDS011;11709;52.420;10.538;2022-11-15T16:54:43;22.73;;;11.28;;
23082;SDS011;11709;52.420;10.538;2022-11-15T16:58:45;20.08;;;11.25;;
23082;SDS011;11709;52.420;10.538;2022-11-15T17:02:48;24.55;;;11.40;;
23082;SDS011;11709;52.420;10.538;2022-11-15T17:06:52;18.40;;;10.90;;
23082;SDS011;11709;52.420;10.538;2022-11-15T17:10:54;19.45;;;11.88;;
23082;SDS011;11709;52.420;10.538;2022-11-15T17:14:57;19.15;;;10.98;;
23082;SDS011;11709;52.420;10.538;2022-11-15T17:18:59;23.07;;;11.08;;
23082;SDS011;11709;52.420;10.538;2022-11-15T17:23:02;23.95;;;11.83;;
23082;SDS011;11709;52.420;10.538;2022-11-15T17:27:04;21.45;;;11.28;;
23082;SDS011;11709;52.420;10.538;2022-11-15T17:31:10;20.80;;;12.10;;
23082;SDS011;11709;52.420;10.538;2022-11-15T17:35:15;18.85;;;10.90;;
23082;SDS011;11709;52.420;10.538;2022-11-15T17:39:17;20.32;;;11.40;;
23082;SDS011;11709;52.420;10.538;2022-11-15T17:43:20;21.37;;;11.22;;
23082;SDS011;11709;52.420;10.538;2022-11-15T17:47:23;22.40;;;11.05;;
23082;SDS011;11709;52.420;10.538;2022-11-15T17:51:25;21.15;;;11.28;;
23082;SDS011;11709;52.420;10.538;2022-11-15T17:55:28;24.57;;;12.03;;
23082;SDS011;11709;52.420;10.538;2022-11-15T17:59:30;21.00;;;11.33;;
23082;SDS011;11709;52.420;10.538;2022-11-15T18:03:34;19.48;;;11.05;;
23082;SDS011;11709;52.420;10.538;2022-11-15T18:07:37;18.32;;;10.70;;
23082;SDS011;11709;52.420;10.538;2022-11-15T18:11:40;19.87;;;11.43;;
23082;SDS011;11709;52.420;10.538;2022-11-15T18:15:48;18.27;;;11.18;;
23082;SDS011;11709;52.420;10.538;2022-11-15T18:19:50;18.40;;;10.78;;
23082;SDS011;11709;52.420;10.538;2022-11-15T18:23:53;23.42;;;11.08;;
23082;SDS011;11709;52.420;10.538;2022-11-15T18:27:59;17.95;;;10.58;;
23082;SDS011;11709;52.420;10.538;2022-11-15T18:32:03;17.65;;;10.18;;
23082;SDS011;11709;52.420;10.538;2022-11-15T18:36:10;16.80;;;10.30;;
23082;SDS011;11709;52.420;10.538;2022-11-15T18:40:13;16.90;;;10.10;;
23082;SDS011;11709;52.420;10.538;2022-11-15T18:44:15;16.48;;;10.35;;
23082;SDS011;11709;52.420;10.538;2022-11-15T18:48:18;15.53;;;9.28;;
23082;SDS011;11709;52.420;10.538;2022-11-15T18:52:21;16.62;;;8.90;;
23082;SDS011;11709;52.420;10.538;2022-11-15T18:56:24;14.30;;;7.80;;
23082;SDS011;11709;52.420;10.538;2022-11-15T19:00:28;18.55;;;9.23;;
23082;SDS011;11709;52.420;10.538;2022-11-15T19:04:30;13.50;;;8.30;;
23082;SDS011;11709;52.420;10.538;2022-11-15T19:08:33;11.68;;;8.13;;
23082;SDS011;11709;52.420;10.538;2022-11-15T19:12:36;14.03;;;8.05;;
23082;SDS011;11709;52.420;10.538;2022-11-15T19:16:40;13.75;;;8.20;;
23082;SDS011;11709;52.420;10.538;2022-11-15T19:20:48;18.67;;;7.95;;
23082;SDS011;11709;52.420;10.538;2022-11-15T19:24:51;15.75;;;9.03;;
23082;SDS011;11709;52.420;10.538;2022-11-15T19:28:54;13.25;;;8.53;;
23082;SDS011;11709;52.420;10.538;2022-11-15T19:32:58;13.40;;;8.28;;
23082;SDS011;11709;52.420;10.538;2022-11-15T19:37:01;16.37;;;7.85;;
23082;SDS011;11709;52.420;10.538;2022-11-15T19:41:05;15.43;;;7.62;;
23082;SDS011;11709;52.420;10.538;2022-11-15T19:45:10;14.45;;;7.78;;
23082;SDS011;11709;52.420;10.538;2022-11-15T19:49:12;15.35;;;8.00;;
23082;SDS011;11709;52.420;10.538;2022-11-15T19:53:15;15.83;;;8.30;;
23082;SDS011;11709;52.420;10.538;2022-11-15T19:57:18;13.55;;;8.03;;
23082;SDS011;11709;52.420;10.538;2022-11-15T20:01:21;12.73;;;7.87;;
23082;SDS011;11709;52.420;10.538;2022-11-15T20:05:26;13.72;;;7.95;;
23082;SDS011;11709;52.420;10.538;2022-11-15T20:09:28;14.23;;;7.70;;
23082;SDS011;11709;52.420;10.538;2022-11-15T20:13:31;14.50;;;8.08;;
23082;SDS011;11709;52.420;10.538;2022-11-15T20:17:33;15.55;;;7.78;;
23082;SDS011;11709;52.420;10.538;2022-11-15T20:21:36;14.28;;;8.40;;
23082;SDS011;11709;52.420;10.538;2022-11-15T20:25:39;12.37;;;7.78;;
23082;SDS011;11709;52.420;10.538;2022-11-15T20:29:46;12.03;;;7.62;;
23082;SDS011;11709;52.420;10.538;2022-11-15T20:33:50;16.42;;;8.53;;
23082;SDS011;11709;52.420;10.538;2022-11-15T20:37:53;16.15;;;8.53;;
23082;SDS011;11709;52.420;10.538;2022-11-15T20:41:55;12.65;;;6.95;;
23082;SDS011;11709;52.420;10.538;2022-11-15T20:45:58;11.57;;;7.85;;
23082;SDS011;11709;52.420;10.538;2022-11-15T20:50:00;10.28;;;7.37;;
23082;SDS011;11709;52.420;10.538;2022-11-15T20:54:03;12.78;;;7.50;;
23082;SDS011;11709;52.420;10.538;2022-11-15T20:58:06;13.62;;;7.83;;
23082;SDS011;11709;52.420;10.538;2022-11-15T21:02:12;13.35;;;8.10;;
23082;SDS011;11709;52.420;10.538;2022-11-15T21:06:15;15.05;;;8.30;;
23082;SDS011;11709;52.420;10.538;2022-11-15T21:10:19;13.08;;;8.18;;
23082;SDS011;11709;52.420;10.538;2022-11-15T21:14:40;13.45;;;8.75;;
23082;SDS011;11709;52.420;10.538;2022-11-15T21:18:44;14.38;;;9.15;;
23082;SDS011;11709;52.420;10.538;2022-11-15T21:22:46;18.52;;;9.73;;
23082;SDS011;11709;52.420;10.538;2022-11-15T21:26:49;21.70;;;9.93;;
23082;SDS011;11709;52.420;10.538;2022-11-15T21:30:54;17.27;;;9.10;;
23082;SDS011;11709;52.420;10.538;2022-11-15T21:34:58;14.30;;;9.05;;
23082;SDS011;11709;52.420;10.538;2022-11-15T21:39:00;16.82;;;8.98;;
23082;SDS011;11709;52.420;10.538;2022-11-15T21:43:03;15.85;;;9.53;;
23082;SDS011;11709;52.420;10.538;2022-11-15T21:47:05;18.05;;;9.35;;
23082;SDS011;11709;52.420;10.538;2022-11-15T21:51:11;18.30;;;9.93;;
23082;SDS011;11709;52.420;10.538;2022-11-15T21:55:12;17.05;;;9.45;;
23082;SDS011;11709;52.420;10.538;2022-11-15T21:59:15;19.12;;;9.80;;
23082;SDS011;11709;52.420;10.538;2022-11-15T22:03:17;19.55;;;10.38;;
23082;SDS011;11709;52.420;10.538;2022-11-15T22:07:20;21.23;;;9.88;;
23082;SDS011;11709;52.420;10.538;2022-11-15T22:11:22;16.67;;;10.13;;
23082;SDS011;11709;52.420;10.538;2022-11-15T22:15:25;16.05;;;9.65;;
23082;SDS011;11709;52.420;10.538;2022-11-15T22:19:27;16.55;;;9.53;;
23082;SDS011;11709;52.420;10.538;2022-11-15T22:23:30;14.87;;;9.95;;
23082;SDS011;11709;52.420;10.538;2022-11-15T22:27:34;18.70;;;9.25;;
23082;SDS011;11709;52.420;10.538;2022-11-15T22:31:37;17.52;;;10.05;;
23082;SDS011;11709;52.420;10.538;2022-11-15T22:35:39;21.37;;;9.78;;
23082;SDS011;11709;52.420;10.538;2022-11-15T22:39:42;17.20;;;9.30;;
23082;SDS011;11709;52.420;10.538;2022-11-15T22:43:44;15.28;;;8.90;;
23082;SDS011;11709;52.420;10.538;2022-11-15T22:47:48;15.20;;;9.18;;
23082;SDS011;11709;52.420;10.538;2022-11-15T22:51:50;15.83;;;9.43;;
23082;SDS011;11709;52.420;10.538;2022-11-15T22:55:53;19.05;;;10.08;;
23082;SDS011;11709;52.420;10.538;2022-11-15T22:59:58;21.82;;;10.00;;
23082;SDS011;11709;52.420;10.538;2022-11-15T23:04:00;18.15;;;9.90;;
23082;SDS011;11709;52.420;10.538;2022-11-15T23:08:03;16.05;;;9.85;;
23082;SDS011;11709;52.420;10.538;2022-11-15T23:12:05;17.52;;;9.63;;
23082;SDS011;11709;52.420;10.538;2022-11-15T23:16:29;14.93;;;10.28;;
23082;SDS011;11709;52.420;10.538;2022-11-15T23:20:34;17.37;;;10.43;;
23082;SDS011;11709;52.420;10.538;2022-11-15T23:24:37;20.43;;;11.25;;
23082;SDS011;11709;52.420;10.538;2022-11-15T23:28:39;21.30;;;11.65;;
23082;SDS011;11709;52.420;10.538;2022-11-15T23:32:42;21.62;;;12.18;;
23082;SDS011;11709;52.420;10.538;2022-11-15T23:37:02;18.15;;;11.12;;
23082;SDS011;11709;52.420;10.538;2022-11-15T23:41:05;20.17;;;11.93;;
23082;SDS011;11709;52.420;10.538;2022-11-15T23:45:08;21.65;;;12.78;;
23082;SDS011;11709;52.420;10.538;2022-11-15T23:49:11;19.87;;;11.97;;
23082;SDS011;11709;52.420;10.538;2022-11-15T23:53:14;25.15;;;12.35;;
23082;SDS011;11709;52.420;10.538;2022-11-15T23:57:16;20.30;;;12.45;;
